Time;durP1;ratioP1;P1;durP2;ratioP2;P2;SDS_P1;SDS_P2;PMS_P1;PMS_P2;Temp;Humidity;BMP_temperature;BMP_pressure;BME280_temperature;BME280_humidity;BME280_pressure;Samples;Min_cycle;Max_cycle;Signal;HPM_P1;HPM_P2
2022/07/02 00:01:10;;;;;;;7.13;5.25;;;;;;;;;;5006263;28;20078;-83
2022/07/02 00:22:34;;;;;;;9.88;4.72;;;;;;;;;;5007698;28;20168;-84
2022/07/02 00:48:32;;;;;;;11.65;5.32;;;;;;;;;;5006880;28;20052;-83
2022/07/02 00:51:10;;;;;;;9.20;5.13;;;;;;;;;;4997040;28;20048;-83
2022/07/02 00:53:38;;;;;;;9.75;4.78;;;;;;;;;;5012852;28;20068;-83
2022/07/02 00:56:54;;;;;;;9.18;4.32;;;;;;;;;;5006028;28;20038;-83
2022/07/02 00:59:23;;;;;;;7.85;4.88;;;;;;;;;;5018615;28;20496;-83
2022/07/02 01:02:20;;;;;;;7.03;4.82;;;;;;;;;;5001781;28;20083;-83
2022/07/02 01:04:49;;;;;;;9.23;5.10;;;;;;;;;;5017992;28;20037;-84
2022/07/02 01:07:19;;;;;;;9.07;4.72;;;;;;;;;;5000737;28;20153;-83
2022/07/02 01:12:35;;;;;;;6.68;4.80;;;;;;;;;;4985131;28;20499;-83
2022/07/02 01:15:27;;;;;;;7.28;4.88;;;;;;;;;;5003925;28;20041;-83
2022/07/02 01:18:02;;;;;;;7.03;4.63;;;;;;;;;;5015449;28;20048;-83
2022/07/02 01:20:29;;;;;;;8.60;4.78;;;;;;;;;;5017190;28;20045;-84
2022/07/02 01:22:57;;;;;;;10.02;4.50;;;;;;;;;;5016404;28;20508;-84
2022/07/02 01:25:25;;;;;;;7.05;5.07;;;;;;;;;;5000976;28;20041;-83
2022/07/02 01:27:53;;;;;;;7.28;4.28;;;;;;;;;;5017996;28;20049;-83
2022/07/02 01:30:50;;;;;;;8.00;4.43;;;;;;;;;;4996854;28;20057;-83
2022/07/02 01:33:24;;;;;;;8.50;4.43;;;;;;;;;;5016218;28;20034;-83
2022/07/02 01:35:51;;;;;;;9.57;5.20;;;;;;;;;;5015064;28;20034;-83
2022/07/02 01:38:19;;;;;;;10.02;4.03;;;;;;;;;;4998673;28;20056;-83
2022/07/02 01:40:47;;;;;;;7.32;4.60;;;;;;;;;;5000759;28;20093;-83
2022/07/02 01:43:15;;;;;;;8.23;4.07;;;;;;;;;;4985838;28;20064;-83
2022/07/02 01:45:47;;;;;;;6.57;4.30;;;;;;;;;;5016216;28;20048;-83
2022/07/02 01:48:16;;;;;;;12.77;4.68;;;;;;;;;;5015970;28;20473;-83
2022/07/02 01:50:43;;;;;;;6.75;4.15;;;;;;;;;;4983585;28;20061;-83
2022/07/02 01:53:12;;;;;;;6.95;4.22;;;;;;;;;;5017919;28;20052;-83
2022/07/02 02:10:18;;;;;;;6.22;3.95;;;;;;;;;;5016177;28;20041;-89
2022/07/02 02:12:50;;;;;;;9.50;4.60;;;;;;;;;;4999555;28;20052;-83
2022/07/02 02:15:17;;;;;;;7.60;4.28;;;;;;;;;;5007731;28;20117;-83
2022/07/02 02:27:03;;;;;;;6.85;4.40;;;;;;;;;;5006470;28;20586;-83
2022/07/02 02:29:31;;;;;;;10.25;4.40;;;;;;;;;;5009675;28;20115;-83
2022/07/02 02:31:59;;;;;;;7.18;4.57;;;;;;;;;;4999836;28;20046;-83
2022/07/02 03:11:47;;;;;;;8.20;5.00;;;;;;;;;;5015503;28;20450;-83
2022/07/02 03:14:15;;;;;;;15.73;5.13;;;;;;;;;;5014538;28;20045;-83
2022/07/02 03:16:43;;;;;;;9.55;5.20;;;;;;;;;;5015146;28;20041;-83
2022/07/02 03:19:15;;;;;;;8.65;4.85;;;;;;;;;;5015034;28;20041;-83
2022/07/02 04:02:41;;;;;;;8.32;5.68;;;;;;;;;;5008735;28;20030;-83
2022/07/02 04:05:09;;;;;;;9.05;6.13;;;;;;;;;;5013189;28;20582;-83
2022/07/02 04:07:37;;;;;;;10.82;6.13;;;;;;;;;;4977341;28;20037;-83
2022/07/02 04:10:07;;;;;;;14.02;6.38;;;;;;;;;;4995443;28;20045;-83
2022/07/02 04:40:28;;;;;;;8.73;5.57;;;;;;;;;;5011779;28;20120;-83
2022/07/02 04:42:55;;;;;;;21.48;6.53;;;;;;;;;;5009742;28;20045;-83
2022/07/02 05:13:14;;;;;;;11.52;6.28;;;;;;;;;;5015215;28;20208;-83
2022/07/02 05:15:45;;;;;;;11.80;6.32;;;;;;;;;;5003859;28;20487;-83
2022/07/02 05:18:17;;;;;;;15.55;6.75;;;;;;;;;;4996302;28;20049;-83
2022/07/02 05:20:46;;;;;;;11.45;6.05;;;;;;;;;;5014232;28;20049;-83
2022/07/02 05:23:13;;;;;;;10.82;7.05;;;;;;;;;;4967136;28;20135;-83
2022/07/02 05:25:42;;;;;;;11.35;7.20;;;;;;;;;;4981660;28;20049;-83
2022/07/02 05:28:09;;;;;;;14.50;6.75;;;;;;;;;;5014933;28;21224;-83
2022/07/02 05:30:39;;;;;;;12.43;6.63;;;;;;;;;;5009039;28;20128;-83
2022/07/02 05:33:11;;;;;;;9.13;6.38;;;;;;;;;;4999393;28;20111;-83
2022/07/02 05:35:43;;;;;;;10.45;7.15;;;;;;;;;;4994189;28;20073;-83
2022/07/02 05:38:11;;;;;;;8.90;6.15;;;;;;;;;;5002101;28;20517;-84
2022/07/02 05:40:40;;;;;;;13.70;6.40;;;;;;;;;;4991597;28;20064;-83
2022/07/02 05:43:07;;;;;;;9.90;6.50;;;;;;;;;;4998328;28;20049;-83
2022/07/02 05:45:36;;;;;;;10.48;6.75;;;;;;;;;;4975488;28;20042;-83
2022/07/02 05:48:07;;;;;;;12.95;6.45;;;;;;;;;;4984306;28;20084;-83
2022/07/02 05:51:23;;;;;;;13.25;6.10;;;;;;;;;;5017569;28;20069;-83
2022/07/02 05:53:52;;;;;;;11.25;7.30;;;;;;;;;;5014317;28;20123;-84
2022/07/02 05:56:19;;;;;;;10.70;6.50;;;;;;;;;;5000999;28;20126;-83
2022/07/02 05:58:47;;;;;;;12.60;6.13;;;;;;;;;;5016865;28;20554;-84
2022/07/02 06:01:29;;;;;;;11.48;5.80;;;;;;;;;;5000604;28;20470;-84
2022/07/02 06:03:57;;;;;;;11.75;5.93;;;;;;;;;;4998175;28;20045;-84
2022/07/02 06:09:24;;;;;;;10.30;5.32;;;;;;;;;;4962109;28;20055;-84
2022/07/02 06:12:56;;;;;;;8.20;4.95;;;;;;;;;;4955748;28;20457;-84
2022/07/02 06:15:41;;;;;;;8.35;4.97;;;;;;;;;;4919911;28;20055;-83
2022/07/02 06:28:21;;;;;;;6.05;4.47;;;;;;;;;;4958522;28;20054;-85
2022/07/02 06:32:08;;;;;;;8.95;3.95;;;;;;;;;;4957325;28;21479;-85
2022/07/02 06:35:02;;;;;;;5.60;3.72;;;;;;;;;;4950931;28;20078;-84
2022/07/02 06:37:47;;;;;;;9.73;3.70;;;;;;;;;;4957237;28;20120;-83
2022/07/02 06:45:32;;;;;;;7.25;3.10;;;;;;;;;;4945694;29;20962;-84
2022/07/02 06:48:19;;;;;;;;;;;;;;;;;;4929268;29;20138;-84
2022/07/02 06:51:53;;;;;;;8.32;3.40;;;;;;;;;;4948038;29;19933;-84
2022/07/02 06:56:28;;;;;;;10.07;2.90;;;;;;;;;;4866660;29;20044;-84
2022/07/02 06:59:41;;;;;;;6.57;2.45;;;;;;;;;;4852725;29;20061;-84
2022/07/02 07:03:58;;;;;;;3.15;1.30;;;;;;;;;;4866938;29;20060;-85
2022/07/02 07:06:59;;;;;;;4.88;1.27;;;;;;;;;;4871396;29;20076;-84
2022/07/02 07:09:41;;;;;;;3.45;1.30;;;;;;;;;;4854666;29;20125;-82
2022/07/02 07:12:10;;;;;;;4.88;1.17;;;;;;;;;;4847288;29;20140;-82
2022/07/02 07:14:40;;;;;;;4.05;1.40;;;;;;;;;;4882410;29;20076;-84
2022/07/02 07:17:27;;;;;;;3.60;1.40;;;;;;;;;;4898491;29;20056;-84
2022/07/02 07:20:37;;;;;;;6.50;1.30;;;;;;;;;;4887762;29;20069;-84
2022/07/02 07:23:23;;;;;;;5.13;1.30;;;;;;;;;;4891947;29;20048;-84
2022/07/02 07:25:51;;;;;;;7.25;1.23;;;;;;;;;;4898530;29;20533;-84
2022/07/02 07:28:19;;;;;;;4.90;1.33;;;;;;;;;;4900540;29;20059;-84
2022/07/02 07:30:47;;;;;;;6.85;2.33;;;;;;;;;;4883045;29;20072;-84
2022/07/02 07:33:19;;;;;;;2.95;1.20;;;;;;;;;;4939498;28;20141;-83
2022/07/02 07:35:51;;;;;;;3.35;1.23;;;;;;;;;;4959396;28;20053;-84
2022/07/02 07:38:44;;;;;;;2.60;1.10;;;;;;;;;;4979830;28;20078;-83
2022/07/02 07:41:11;;;;;;;3.10;0.95;;;;;;;;;;4989344;28;20050;-84
2022/07/02 07:45:25;;;;;;;4.70;1.23;;;;;;;;;;4980039;28;20051;-86
2022/07/02 07:54:09;;;;;;;5.45;1.77;;;;;;;;;;4904978;29;20088;-84
2022/07/02 07:56:43;;;;;;;3.80;1.33;;;;;;;;;;4916134;28;20058;-84
2022/07/02 07:59:11;;;;;;;4.18;1.33;;;;;;;;;;4940093;28;20063;-83
2022/07/02 08:01:43;;;;;;;5.93;1.45;;;;;;;;;;4938867;28;20072;-84
2022/07/02 08:04:11;;;;;;;4.18;1.17;;;;;;;;;;4922972;28;20199;-84
2022/07/02 08:08:00;;;;;;;4.60;1.55;;;;;;;;;;4898119;29;20989;-84
2022/07/02 08:10:30;;;;;;;4.32;1.40;;;;;;;;;;4901891;29;21040;-84
2022/07/02 08:13:21;;;;;;;7.18;1.50;;;;;;;;;;4905710;29;20190;-84
2022/07/02 08:15:50;;;;;;;4.90;1.20;;;;;;;;;;4901953;29;20075;-84
2022/07/02 08:18:42;;;;;;;4.22;1.23;;;;;;;;;;4903256;29;20091;-83
2022/07/02 08:21:09;;;;;;;4.20;1.20;;;;;;;;;;4906726;29;20151;-83
2022/07/02 08:23:37;;;;;;;5.70;1.63;;;;;;;;;;4906078;29;20071;-83
2022/07/02 08:26:05;;;;;;;4.85;1.20;;;;;;;;;;4940116;28;20050;-83
2022/07/02 08:28:37;;;;;;;5.63;1.30;;;;;;;;;;4964065;28;20965;-85
2022/07/02 08:32:07;;;;;;;4.50;1.23;;;;;;;;;;4932550;29;20117;-84
2022/07/02 08:35:37;;;;;;;10.25;1.00;;;;;;;;;;4930263;28;20082;-84
2022/07/02 08:39:18;;;;;;;3.40;1.00;;;;;;;;;;4906609;29;20047;-84
2022/07/02 08:42:42;;;;;;;2.97;1.02;;;;;;;;;;4895593;29;20056;-85
2022/07/02 08:46:44;;;;;;;4.13;1.42;;;;;;;;;;4910389;29;20052;-85
2022/07/02 08:50:45;;;;;;;4.60;1.30;;;;;;;;;;4908004;29;20044;-87
2022/07/02 08:53:22;;;;;;;2.85;1.05;;;;;;;;;;4881831;29;20454;-84
2022/07/02 08:55:50;;;;;;;4.55;1.05;;;;;;;;;;4911902;29;20515;-84
2022/07/02 08:58:19;;;;;;;2.70;1.00;;;;;;;;;;4914552;29;20067;-85
2022/07/02 09:00:48;;;;;;;5.18;1.10;;;;;;;;;;4907228;29;20462;-84
2022/07/02 09:03:19;;;;;;;4.57;1.00;;;;;;;;;;4914551;29;20162;-84
2022/07/02 09:05:50;;;;;;;3.15;0.95;;;;;;;;;;4914222;29;20093;-84
2022/07/02 09:08:18;;;;;;;2.95;1.00;;;;;;;;;;4918303;28;20119;-84
2022/07/02 09:10:47;;;;;;;4.80;0.80;;;;;;;;;;5008440;28;20144;-84
2022/07/02 09:13:34;;;;;;;4.03;0.90;;;;;;;;;;5009356;28;20047;-84
2022/07/02 09:16:17;;;;;;;3.47;1.00;;;;;;;;;;4995306;28;20050;-84
2022/07/02 09:18:45;;;;;;;2.88;0.90;;;;;;;;;;4982885;28;20041;-84
2022/07/02 09:21:20;;;;;;;3.80;1.00;;;;;;;;;;5000937;28;20051;-84
2022/07/02 09:23:53;;;;;;;5.43;1.35;;;;;;;;;;5017967;28;20400;-84
2022/07/02 09:26:23;;;;;;;2.50;0.73;;;;;;;;;;4999932;28;20120;-84
2022/07/02 09:29:00;;;;;;;2.58;0.80;;;;;;;;;;5000078;28;20049;-85
2022/07/02 09:31:29;;;;;;;5.43;0.88;;;;;;;;;;5013777;28;20137;-85
2022/07/02 09:34:26;;;;;;;3.17;1.15;;;;;;;;;;5017934;28;20053;-84
2022/07/02 09:36:59;;;;;;;3.72;1.20;;;;;;;;;;4999840;28;20034;-85
2022/07/02 09:40:17;;;;;;;2.72;0.90;;;;;;;;;;5017110;28;20128;-85
2022/07/02 09:42:49;;;;;;;2.27;0.80;;;;;;;;;;4999984;28;20165;-85
2022/07/02 09:45:22;;;;;;;2.25;0.88;;;;;;;;;;4999278;28;20434;-84
2022/07/02 09:47:49;;;;;;;3.17;0.60;;;;;;;;;;5013433;28;20050;-85
2022/07/02 09:51:26;;;;;;;2.80;0.60;;;;;;;;;;4999311;28;20046;-84
2022/07/02 09:53:59;;;;;;;5.47;0.88;;;;;;;;;;5002578;28;20100;-85
2022/07/02 09:56:32;;;;;;;2.45;0.80;;;;;;;;;;5007436;28;20125;-85
2022/07/02 09:59:01;;;;;;;1.83;0.80;;;;;;;;;;4999316;28;20048;-84
2022/07/02 10:01:42;;;;;;;3.03;0.90;;;;;;;;;;5016075;28;20468;-84
2022/07/02 10:04:12;;;;;;;1.48;0.60;;;;;;;;;;4999091;28;20419;-85
2022/07/02 10:06:47;;;;;;;2.20;0.70;;;;;;;;;;5012832;28;20038;-85
2022/07/02 10:09:39;;;;;;;4.57;1.10;;;;;;;;;;4973967;28;20036;-84
2022/07/02 10:12:08;;;;;;;3.72;0.95;;;;;;;;;;5014770;28;20129;-84
2022/07/02 10:15:04;;;;;;;5.25;0.95;;;;;;;;;;5013524;28;20424;-84
2022/07/02 10:18:02;;;;;;;1.98;0.82;;;;;;;;;;5013281;28;20157;-84
2022/07/02 10:20:56;;;;;;;4.88;0.80;;;;;;;;;;5018066;28;20030;-83
2022/07/02 10:23:45;;;;;;;3.55;0.80;;;;;;;;;;5029723;28;20041;-82
2022/07/02 10:26:32;;;;;;;4.80;1.58;;;;;;;;;;5030489;28;20038;-82
2022/07/02 10:29:42;;;;;;;3.97;0.80;;;;;;;;;;5023657;28;20042;-83
2022/07/02 10:32:54;;;;;;;2.25;0.80;;;;;;;;;;5002122;28;20529;-85
2022/07/02 10:35:23;;;;;;;1.92;0.82;;;;;;;;;;5022110;28;20048;-84
2022/07/02 10:37:57;;;;;;;3.67;0.80;;;;;;;;;;5014905;28;20103;-87
2022/07/02 10:41:10;;;;;;;4.50;1.08;;;;;;;;;;5016466;28;20159;-83
2022/07/02 10:43:38;;;;;;;3.45;0.85;;;;;;;;;;5015644;28;20167;-84
2022/07/02 10:46:11;;;;;;;4.47;0.80;;;;;;;;;;4999077;28;20055;-86
2022/07/02 10:48:49;;;;;;;6.05;0.82;;;;;;;;;;5023147;28;20037;-84
2022/07/02 10:51:31;;;;;;;1.73;0.70;;;;;;;;;;5018414;28;20046;-84
2022/07/02 10:54:00;;;;;;;4.03;0.88;;;;;;;;;;5005065;28;20048;-85
2022/07/02 10:56:28;;;;;;;1.77;0.70;;;;;;;;;;5003300;28;20042;-85
2022/07/02 10:59:24;;;;;;;4.50;0.80;;;;;;;;;;5016881;28;20033;-84
2022/07/02 11:02:03;;;;;;;4.95;0.80;;;;;;;;;;5015016;28;20047;-83
2022/07/02 11:04:32;;;;;;;2.87;0.70;;;;;;;;;;5017629;28;20068;-84
2022/07/02 11:07:12;;;;;;;4.27;0.83;;;;;;;;;;5014477;28;20794;-84
2022/07/02 11:09:51;;;;;;;2.73;0.73;;;;;;;;;;5008144;28;20301;-84
2022/07/02 11:12:46;;;;;;;3.88;1.10;;;;;;;;;;5008093;28;20466;-84
2022/07/02 11:15:34;;;;;;;4.13;0.93;;;;;;;;;;5007129;28;20572;-84
2022/07/02 11:18:06;;;;;;;4.03;0.80;;;;;;;;;;5012965;28;20050;-84
2022/07/02 11:20:35;;;;;;;2.38;0.75;;;;;;;;;;5016668;28;20055;-84
2022/07/02 11:23:02;;;;;;;2.80;0.80;;;;;;;;;;5001264;28;20107;-84
2022/07/02 11:25:31;;;;;;;2.40;0.82;;;;;;;;;;5015320;28;20411;-83
2022/07/02 11:28:02;;;;;;;5.45;0.88;;;;;;;;;;5015992;28;20132;-84
2022/07/02 11:30:32;;;;;;;2.67;0.68;;;;;;;;;;5015577;28;20049;-83
2022/07/02 11:33:13;;;;;;;1.92;0.70;;;;;;;;;;5015885;28;20776;-83
2022/07/02 11:35:42;;;;;;;2.92;0.82;;;;;;;;;;4984761;28;20050;-83
2022/07/02 11:38:15;;;;;;;3.30;0.60;;;;;;;;;;5015430;28;20048;-83
2022/07/02 11:40:43;;;;;;;4.07;0.70;;;;;;;;;;4999230;28;20369;-83
2022/07/02 11:43:18;;;;;;;3.33;0.93;;;;;;;;;;4997187;28;20483;-83
2022/07/02 11:45:47;;;;;;;2.53;0.60;;;;;;;;;;4997430;28;20042;-83
2022/07/02 11:48:23;;;;;;;4.53;0.88;;;;;;;;;;5014047;28;20391;-83
2022/07/02 11:50:56;;;;;;;5.18;1.02;;;;;;;;;;5000544;28;20053;-83
2022/07/02 11:53:24;;;;;;;6.00;0.97;;;;;;;;;;5011667;28;20050;-83
2022/07/02 11:56:15;;;;;;;2.47;0.70;;;;;;;;;;5012699;28;20793;-83
2022/07/02 11:58:46;;;;;;;3.58;1.30;;;;;;;;;;4996780;28;20096;-83
2022/07/02 12:01:23;;;;;;;4.20;0.90;;;;;;;;;;4995877;28;20462;-83
2022/07/02 12:04:02;;;;;;;3.65;0.85;;;;;;;;;;4998607;28;20460;-83
2022/07/02 12:06:41;;;;;;;2.13;0.50;;;;;;;;;;5015577;28;20543;-84
2022/07/02 12:09:22;;;;;;;2.80;0.80;;;;;;;;;;5013925;28;20053;-83
2022/07/02 12:11:51;;;;;;;3.38;0.90;;;;;;;;;;5011710;28;20041;-84
2022/07/02 12:14:24;;;;;;;2.00;0.73;;;;;;;;;;4998986;28;20106;-83
2022/07/02 12:16:52;;;;;;;2.77;0.77;;;;;;;;;;5013023;28;20467;-83
2022/07/02 12:19:24;;;;;;;4.25;0.95;;;;;;;;;;5014960;28;20358;-84
2022/07/02 12:21:51;;;;;;;3.20;1.23;;;;;;;;;;5014996;28;20050;-84
2022/07/02 12:24:24;;;;;;;1.80;0.50;;;;;;;;;;4981560;28;20546;-83
2022/07/02 12:27:00;;;;;;;2.20;0.70;;;;;;;;;;4992973;28;20084;-83
2022/07/02 12:29:53;;;;;;;6.18;0.90;;;;;;;;;;5004881;28;20049;-83
2022/07/02 12:32:31;;;;;;;3.58;0.65;;;;;;;;;;4998088;28;20056;-83
2022/07/02 12:35:08;;;;;;;2.88;1.20;;;;;;;;;;4997102;28;20071;-84
2022/07/02 12:37:38;;;;;;;6.38;1.25;;;;;;;;;;5011321;28;20124;-83
2022/07/02 12:40:22;;;;;;;3.95;1.10;;;;;;;;;;5013695;28;20408;-84
2022/07/02 12:43:05;;;;;;;2.85;0.65;;;;;;;;;;4990503;28;20072;-86
2022/07/02 12:45:48;;;;;;;2.25;0.75;;;;;;;;;;4997573;28;20053;-86
2022/07/02 13:09:15;;;;;;;2.38;0.60;;;;;;;;;;4949875;28;20197;-87
2022/07/02 13:13:22;;;;;;;2.17;0.82;;;;;;;;;;4926938;29;20052;-86
2022/07/02 13:16:35;;;;;;;2.53;0.85;;;;;;;;;;4933165;28;20047;-82
2022/07/02 13:19:27;;;;;;;3.15;0.90;;;;;;;;;;4976839;28;20316;-82
2022/07/02 13:22:00;;;;;;;2.92;0.70;;;;;;;;;;4969845;28;20118;-83
2022/07/02 13:24:31;;;;;;;1.45;0.73;;;;;;;;;;5003723;28;20184;-82
2022/07/02 13:26:59;;;;;;;4.07;0.80;;;;;;;;;;4996589;28;20169;-83
2022/07/02 13:29:29;;;;;;;3.90;0.95;;;;;;;;;;4997760;28;20106;-83
2022/07/02 13:32:21;;;;;;;4.68;0.80;;;;;;;;;;4998299;28;20068;-83
2022/07/02 13:34:49;;;;;;;2.08;0.60;;;;;;;;;;5002703;28;20054;-83
2022/07/02 13:37:17;;;;;;;1.58;0.57;;;;;;;;;;4984241;28;20061;-83
2022/07/02 13:39:46;;;;;;;2.40;0.80;;;;;;;;;;4998595;28;20518;-82
2022/07/02 13:42:20;;;;;;;1.80;0.80;;;;;;;;;;5011678;28;20943;-83
2022/07/02 13:44:47;;;;;;;3.03;0.93;;;;;;;;;;5001081;28;20052;-83
2022/07/02 13:47:16;;;;;;;1.85;0.75;;;;;;;;;;5015401;28;20048;-83
2022/07/02 13:49:43;;;;;;;3.20;0.90;;;;;;;;;;5016025;28;20057;-83
2022/07/02 13:52:19;;;;;;;3.83;1.40;;;;;;;;;;5001518;28;20046;-83
2022/07/02 13:54:47;;;;;;;3.58;1.00;;;;;;;;;;4998019;28;20076;-83
2022/07/02 13:57:39;;;;;;;1.67;0.80;;;;;;;;;;5000008;28;20026;-83
2022/07/02 14:00:33;;;;;;;2.50;0.82;;;;;;;;;;5015997;28;20042;-83
2022/07/02 14:03:05;;;;;;;2.72;0.75;;;;;;;;;;5017235;28;20056;-82
2022/07/02 14:05:37;;;;;;;3.65;0.80;;;;;;;;;;4983952;28;20870;-83
2022/07/02 14:08:06;;;;;;;4.13;0.80;;;;;;;;;;5016345;28;20046;-82
2022/07/02 14:10:33;;;;;;;1.63;0.55;;;;;;;;;;5011972;28;20046;-82
2022/07/02 14:13:02;;;;;;;2.10;0.90;;;;;;;;;;5008538;28;20049;-83
2022/07/02 14:15:35;;;;;;;2.67;0.70;;;;;;;;;;5022388;28;20042;-83
2022/07/02 14:18:07;;;;;;;2.13;0.88;;;;;;;;;;5026711;28;20325;-83
2022/07/02 14:20:35;;;;;;;2.10;0.77;;;;;;;;;;5025990;28;20042;-84
2022/07/02 14:23:06;;;;;;;2.50;0.90;;;;;;;;;;5008472;28;20050;-83
2022/07/02 14:26:00;;;;;;;3.83;1.08;;;;;;;;;;5006194;28;20117;-83
2022/07/02 14:28:53;;;;;;;3.58;1.10;;;;;;;;;;5017953;28;20059;-83
2022/07/02 14:31:21;;;;;;;2.83;0.90;;;;;;;;;;5017907;28;20100;-83
2022/07/02 14:33:49;;;;;;;3.70;1.00;;;;;;;;;;5001569;28;20440;-83
2022/07/02 14:36:41;;;;;;;3.15;1.17;;;;;;;;;;5015863;28;20033;-83
2022/07/02 14:39:34;;;;;;;2.97;0.80;;;;;;;;;;5013314;28;20060;-83
2022/07/02 14:42:02;;;;;;;3.90;1.08;;;;;;;;;;5012623;28;20056;-83
2022/07/02 14:44:29;;;;;;;4.82;0.98;;;;;;;;;;5000197;28;20094;-83
2022/07/02 14:46:57;;;;;;;3.35;0.90;;;;;;;;;;5017984;28;20046;-83
2022/07/02 14:49:25;;;;;;;3.88;0.80;;;;;;;;;;5017628;28;20099;-83
2022/07/02 14:51:54;;;;;;;3.35;0.80;;;;;;;;;;5014857;28;20057;-83
2022/07/02 14:54:22;;;;;;;3.63;0.80;;;;;;;;;;5017481;28;20500;-83
2022/07/02 14:56:49;;;;;;;3.40;1.02;;;;;;;;;;5013997;28;20083;-83
2022/07/02 14:59:43;;;;;;;2.25;0.90;;;;;;;;;;5018174;28;20200;-83
2022/07/02 15:02:12;;;;;;;2.22;0.95;;;;;;;;;;5013281;28;20132;-83
2022/07/02 15:04:39;;;;;;;2.30;0.90;;;;;;;;;;5015176;28;20460;-83
2022/07/02 15:07:13;;;;;;;2.27;0.93;;;;;;;;;;5015397;28;20494;-83
2022/07/02 15:09:42;;;;;;;3.72;1.00;;;;;;;;;;5015813;28;20046;-83
2022/07/02 15:12:10;;;;;;;1.88;1.00;;;;;;;;;;5016077;28;20046;-83
2022/07/02 15:17:54;;;;;;;2.45;0.90;;;;;;;;;;5012211;28;20113;-83
2022/07/02 15:20:22;;;;;;;1.75;1.05;;;;;;;;;;5014969;28;20046;-82
2022/07/02 15:23:01;;;;;;;3.00;1.17;;;;;;;;;;5012158;28;20388;-83
2022/07/02 15:25:32;;;;;;;4.27;1.27;;;;;;;;;;4983890;28;20069;-83
2022/07/02 15:28:00;;;;;;;3.45;1.10;;;;;;;;;;5013718;28;20292;-83
2022/07/02 15:30:33;;;;;;;2.30;0.93;;;;;;;;;;5012562;28;20700;-83
2022/07/02 15:33:03;;;;;;;2.10;0.90;;;;;;;;;;5014358;28;20570;-83
2022/07/02 15:35:32;;;;;;;3.90;1.02;;;;;;;;;;5015148;28;20037;-83
2022/07/02 15:38:25;;;;;;;2.17;1.00;;;;;;;;;;5013364;28;20212;-83
2022/07/02 15:40:54;;;;;;;3.25;1.10;;;;;;;;;;4994783;28;20033;-83
2022/07/02 15:43:31;;;;;;;2.58;0.77;;;;;;;;;;4980394;28;20076;-83
2022/07/02 15:45:59;;;;;;;2.78;1.00;;;;;;;;;;5013902;28;20037;-83
2022/07/02 15:48:29;;;;;;;2.85;1.10;;;;;;;;;;5013444;28;20037;-82
2022/07/02 15:51:00;;;;;;;2.03;1.10;;;;;;;;;;5014682;28;20136;-83
2022/07/02 15:53:29;;;;;;;3.45;1.10;;;;;;;;;;5014189;28;20048;-83
2022/07/02 15:56:24;;;;;;;3.60;1.00;;;;;;;;;;4996512;28;20046;-83
2022/07/02 15:59:20;;;;;;;3.03;0.90;;;;;;;;;;4997036;28;20092;-83
2022/07/02 16:01:52;;;;;;;3.33;1.27;;;;;;;;;;4998102;28;20068;-83
2022/07/02 16:04:33;;;;;;;4.43;1.30;;;;;;;;;;4998097;28;20124;-83
2022/07/02 16:07:04;;;;;;;3.97;1.30;;;;;;;;;;4996217;28;20046;-83
2022/07/02 16:09:32;;;;;;;3.00;1.23;;;;;;;;;;5007677;28;20133;-83
2022/07/02 16:12:26;;;;;;;3.85;1.27;;;;;;;;;;5006903;28;20171;-83
2022/07/02 16:14:54;;;;;;;2.72;1.00;;;;;;;;;;4966451;28;20057;-83
2022/07/02 16:17:28;;;;;;;2.83;1.03;;;;;;;;;;5001619;28;20104;-83
2022/07/02 16:19:57;;;;;;;2.85;1.17;;;;;;;;;;5007844;28;20053;-84
2022/07/02 16:22:52;;;;;;;5.22;1.45;;;;;;;;;;5017203;28;20105;-86
2022/07/02 16:25:43;;;;;;;3.50;1.20;;;;;;;;;;5017305;28;20041;-86
2022/07/02 16:28:16;;;;;;;9.93;3.58;;;;;;;;;;5017652;28;20053;-84
2022/07/02 16:30:49;;;;;;;7.75;3.45;;;;;;;;;;4996332;28;20416;-83
2022/07/02 16:33:30;;;;;;;3.57;2.10;;;;;;;;;;4966422;28;20507;-83
2022/07/02 16:36:03;;;;;;;5.22;1.40;;;;;;;;;;5014212;28;20060;-83
2022/07/02 16:38:39;;;;;;;2.67;1.48;;;;;;;;;;5002393;28;20061;-83
2022/07/02 16:41:08;;;;;;;1.73;0.77;;;;;;;;;;5011155;28;20044;-82
2022/07/02 16:43:45;;;;;;;3.27;0.90;;;;;;;;;;4981041;28;20046;-81
2022/07/02 16:46:17;;;;;;;4.75;1.00;;;;;;;;;;4979242;28;20522;-83
2022/07/02 16:48:48;;;;;;;2.60;0.90;;;;;;;;;;4996661;28;20049;-80
2022/07/02 16:51:27;;;;;;;2.65;1.20;;;;;;;;;;4979239;28;20034;-80
2022/07/02 16:53:55;;;;;;;2.67;1.00;;;;;;;;;;5013695;28;20050;-81
2022/07/02 16:56:50;;;;;;;3.95;1.05;;;;;;;;;;5010906;28;20055;-81
2022/07/02 16:59:25;;;;;;;2.20;1.02;;;;;;;;;;5022539;28;20038;-81
2022/07/02 17:01:54;;;;;;;3.10;1.05;;;;;;;;;;5006674;28;20034;-81
2022/07/02 17:04:21;;;;;;;3.38;1.70;;;;;;;;;;5028603;28;20049;-83
2022/07/02 17:06:53;;;;;;;3.28;1.67;;;;;;;;;;4993023;28;20037;-82
2022/07/02 17:09:25;;;;;;;30.27;20.13;;;;;;;;;;5023190;28;20070;-81
2022/07/02 17:11:53;;;;;;;7.90;4.47;;;;;;;;;;5007351;28;20177;-82
2022/07/02 17:14:22;;;;;;;5.43;3.20;;;;;;;;;;5021628;28;20088;-82
2022/07/02 17:16:51;;;;;;;3.63;1.65;;;;;;;;;;5007034;28;20566;-82
2022/07/02 17:19:19;;;;;;;3.22;1.33;;;;;;;;;;5025773;28;20037;-82
2022/07/02 17:21:47;;;;;;;3.60;1.20;;;;;;;;;;5011454;28;20049;-82
2022/07/02 17:24:19;;;;;;;3.40;1.27;;;;;;;;;;5029171;28;20046;-82
2022/07/02 17:26:51;;;;;;;3.72;1.35;;;;;;;;;;5026921;28;20046;-82
2022/07/02 17:29:53;;;;;;;3.00;1.30;;;;;;;;;;5029800;28;20053;-82
2022/07/02 17:32:21;;;;;;;3.40;1.50;;;;;;;;;;4971295;28;20050;-81
2022/07/02 17:34:49;;;;;;;4.57;1.48;;;;;;;;;;4996172;28;20561;-81
2022/07/02 17:37:18;;;;;;;3.60;1.50;;;;;;;;;;4997140;28;20041;-81
2022/07/02 17:39:49;;;;;;;4.90;1.40;;;;;;;;;;5002083;28;20048;-81
2022/07/02 17:42:43;;;;;;;5.65;1.90;;;;;;;;;;4998783;28;20442;-81
2022/07/02 17:45:12;;;;;;;5.20;1.67;;;;;;;;;;5008123;28;20034;-81
2022/07/02 17:47:40;;;;;;;3.65;1.40;;;;;;;;;;4992231;28;20051;-82
2022/07/02 17:50:11;;;;;;;3.33;1.30;;;;;;;;;;4988449;28;20059;-82
2022/07/02 17:52:40;;;;;;;4.82;1.40;;;;;;;;;;4999798;28;20052;-82
2022/07/02 17:55:08;;;;;;;5.35;1.38;;;;;;;;;;5013117;28;20053;-82
2022/07/02 17:57:42;;;;;;;3.40;1.27;;;;;;;;;;5015357;28;20052;-84
2022/07/02 18:00:10;;;;;;;2.83;1.23;;;;;;;;;;5017364;28;20049;-83
2022/07/02 18:02:37;;;;;;;7.10;1.80;;;;;;;;;;4978462;28;20474;-83
2022/07/02 18:05:06;;;;;;;2.30;1.30;;;;;;;;;;5017687;28;20141;-84
2022/07/02 18:07:34;;;;;;;4.95;1.40;;;;;;;;;;5002196;28;20115;-85
2022/07/02 18:10:23;;;;;;;3.53;1.45;;;;;;;;;;4989065;28;20495;-84
2022/07/02 18:13:32;;;;;;;2.67;1.40;;;;;;;;;;4976982;28;20046;-85
2022/07/02 18:16:50;;;;;;;3.63;1.55;;;;;;;;;;4987408;28;20146;-84
2022/07/02 18:19:40;;;;;;;3.53;1.30;;;;;;;;;;4986552;28;20053;-84
2022/07/02 18:23:21;;;;;;;4.85;1.63;;;;;;;;;;4996558;28;20518;-87
2022/07/02 18:25:54;;;;;;;3.33;1.50;;;;;;;;;;4991660;28;20057;-83
2022/07/02 18:28:21;;;;;;;3.70;1.67;;;;;;;;;;4976801;28;20599;-84
2022/07/02 18:31:15;;;;;;;4.18;1.73;;;;;;;;;;4995096;28;20641;-84
2022/07/02 18:33:47;;;;;;;4.72;2.55;;;;;;;;;;5009453;28;20053;-84
2022/07/02 18:36:16;;;;;;;5.03;2.30;;;;;;;;;;4995145;28;20329;-84
2022/07/02 18:38:44;;;;;;;5.65;2.40;;;;;;;;;;4979730;28;20916;-83
2022/07/02 18:41:37;;;;;;;4.85;2.40;;;;;;;;;;4989807;28;20054;-85
2022/07/02 18:44:42;;;;;;;6.07;2.47;;;;;;;;;;5009579;28;20073;-86
2022/07/02 18:56:17;;;;;;;6.10;2.50;;;;;;;;;;4983180;28;20055;-85
2022/07/02 18:59:01;;;;;;;4.32;2.55;;;;;;;;;;4923766;29;20075;-85
2022/07/02 19:01:53;;;;;;;8.77;2.60;;;;;;;;;;4938465;29;20683;-85
2022/07/02 19:04:31;;;;;;;7.45;3.20;;;;;;;;;;4942467;29;21183;-85
2022/07/02 19:07:15;;;;;;;7.45;3.03;;;;;;;;;;4942458;29;20482;-84
2022/07/02 19:10:26;;;;;;;10.20;3.50;;;;;;;;;;4942362;29;20616;-85
2022/07/02 19:13:17;;;;;;;5.63;3.10;;;;;;;;;;4923134;29;20051;-85
2022/07/02 19:16:09;;;;;;;5.32;2.92;;;;;;;;;;4940587;29;20078;-85
2022/07/02 19:18:37;;;;;;;6.38;2.45;;;;;;;;;;4963465;28;20045;-85
2022/07/02 19:33:12;;;;;;;4.25;1.80;;;;;;;;;;5003896;28;20041;-83
2022/07/02 19:35:44;;;;;;;4.50;2.28;;;;;;;;;;5015815;28;20484;-84
2022/07/02 19:38:11;;;;;;;4.55;1.80;;;;;;;;;;5014124;28;20048;-84
2022/07/02 19:40:41;;;;;;;5.28;2.30;;;;;;;;;;5019447;28;20042;-84
2022/07/02 19:43:23;;;;;;;8.10;2.00;;;;;;;;;;4985818;28;20049;-85
2022/07/02 19:46:15;;;;;;;5.35;2.17;;;;;;;;;;5022339;28;20111;-85
2022/07/02 19:49:21;;;;;;;6.75;2.88;;;;;;;;;;5014826;28;20034;-85
2022/07/02 19:52:08;;;;;;;4.88;2.80;;;;;;;;;;4978521;28;20054;-85
2022/07/02 20:00:20;;;;;;;6.05;2.50;;;;;;;;;;4938995;28;20046;-84
2022/07/02 20:02:49;;;;;;;5.43;3.20;;;;;;;;;;4950619;28;20050;-85
2022/07/02 20:05:21;;;;;;;5.88;2.80;;;;;;;;;;4945753;28;20081;-85
2022/07/02 20:09:34;;;;;;;4.80;2.60;;;;;;;;;;4888686;29;20061;-84
2022/07/02 20:14:14;;;;;;;5.63;2.97;;;;;;;;;;4887030;29;20047;-84
2022/07/02 20:17:25;;;;;;;12.15;6.13;;;;;;;;;;4908956;29;20134;-84
2022/07/02 20:19:53;;;;;;;11.80;6.15;;;;;;;;;;4910296;29;20052;-84
2022/07/02 20:22:23;;;;;;;8.40;4.38;;;;;;;;;;4908436;29;20168;-84
2022/07/02 20:25:06;;;;;;;7.60;3.83;;;;;;;;;;4912577;29;20063;-84
2022/07/02 20:27:39;;;;;;;7.93;3.85;;;;;;;;;;4930223;29;20107;-84
2022/07/02 20:30:09;;;;;;;8.07;4.10;;;;;;;;;;4913830;29;20194;-84
2022/07/02 20:32:37;;;;;;;6.95;2.90;;;;;;;;;;4930924;29;20058;-85
2022/07/02 20:35:20;;;;;;;5.68;2.90;;;;;;;;;;4914427;29;20047;-84
2022/07/02 20:37:47;;;;;;;4.93;2.70;;;;;;;;;;4930001;29;20063;-85